Time;durP1;ratioP1;P1;durP2;ratioP2;P2;SDS_P1;SDS_P2;PMS_P1;PMS_P2;Temp;Humidity;BMP_temperature;BMP_pressure;BME280_temperature;BME280_humidity;BME280_pressure;Samples;Min_cycle;Max_cycle;Signal;HPM_P1;HPM_P2
2022/10/26 00:04:06;;;;;;;52.70;25.60;;;;;;;12.39;100.00;100484.71;642902;1294;139969;-81
2022/10/26 00:19:09;;;;;;;61.50;27.00;;;;;;;12.43;100.00;100484.98;642320;1295;139990;-81
2022/10/26 00:34:12;;;;;;;42.90;23.10;;;;;;;12.43;100.00;100482.91;642657;1294;139940;-81
2022/10/26 00:49:19;;;;;;;45.30;23.50;;;;;;;12.48;100.00;100487.58;641151;1289;139523;-81
2022/10/26 01:04:22;;;;;;;279.30;94.30;;;;;;;12.61;100.00;100490.75;640852;1294;139476;-81
2022/10/26 01:19:46;;;;;;;73.30;35.40;;;;;;;12.68;100.00;100494.36;641444;1305;140162;-81
2022/10/26 01:35:09;;;;;;;61.60;27.70;;;;;;;12.76;100.00;100504.77;641032;1294;140296;-82
2022/10/26 01:50:12;;;;;;;45.10;21.20;;;;;;;12.73;100.00;100496.96;640852;1309;140335;-82
2022/10/26 02:05:42;;;;;;;52.50;26.20;;;;;;;12.82;100.00;100492.61;641253;1303;139594;-81
2022/10/26 02:20:50;;;;;;;49.30;24.40;;;;;;;12.93;100.00;100495.70;641237;1291;140220;-82
2022/10/26 02:35:54;;;;;;;55.00;27.80;;;;;;;12.98;100.00;100502.20;640703;1297;139877;-82
2022/10/26 02:51:24;;;;;;;60.30;26.30;;;;;;;12.88;100.00;100503.67;641322;1291;139894;-82
2022/10/26 03:06:27;;;;;;;53.50;28.00;;;;;;;12.77;100.00;100509.48;642384;1310;139404;-82
2022/10/26 03:21:30;;;;;;;55.00;25.00;;;;;;;12.68;100.00;100523.81;642585;1295;139465;-81
2022/10/26 03:36:33;;;;;;;31.20;17.00;;;;;;;12.43;100.00;100538.88;642052;1296;139453;-81
2022/10/26 03:51:36;;;;;;;31.60;16.80;;;;;;;12.28;100.00;100542.91;642446;1295;139396;-82
2022/10/26 04:06:39;;;;;;;34.90;18.30;;;;;;;12.22;100.00;100554.73;642149;1307;140232;-82
2022/10/26 04:21:43;;;;;;;38.00;17.60;;;;;;;12.01;100.00;100571.81;641984;1306;139686;-82
2022/10/26 04:36:45;;;;;;;34.00;17.40;;;;;;;11.98;100.00;100577.11;643205;1304;139346;-82
2022/10/26 04:51:49;;;;;;;47.00;21.00;;;;;;;12.04;100.00;100567.47;641798;1310;139641;-81
2022/10/26 05:06:52;;;;;;;66.40;28.70;;;;;;;12.16;100.00;100578.49;642128;1293;139927;-81
2022/10/26 05:21:56;;;;;;;49.70;23.10;;;;;;;12.31;100.00;100589.46;642895;1302;140135;-80
2022/10/26 05:36:59;;;;;;;50.00;21.30;;;;;;;12.20;100.00;100607.10;642532;1307;139922;-80
2022/10/26 05:52:03;;;;;;;47.70;22.20;;;;;;;12.26;100.00;100635.48;641129;1301;1165945;-81
2022/10/26 06:07:32;;;;;;;58.40;30.80;;;;;;;12.23;100.00;100650.80;641934;1295;139721;-81
2022/10/26 06:22:47;;;;;;;;;;;;;;;12.25;100.00;100666.79;641598;1302;140011;-81
2022/10/26 06:37:53;;;;;;;40.80;18.30;;;;;;;12.27;100.00;100663.95;640258;1302;126106;-80
2022/10/26 06:53:31;;;;;;;39.40;18.50;;;;;;;12.46;100.00;100667.92;640762;1308;139795;-80
2022/10/26 07:08:34;;;;;;;35.40;18.60;;;;;;;12.67;100.00;100674.64;642753;1298;139706;-82
2022/10/26 07:23:38;;;;;;;38.00;16.80;;;;;;;12.78;100.00;100683.11;640803;1302;140063;-82
2022/10/26 07:38:41;;;;;;;30.50;16.50;;;;;;;12.88;100.00;100694.66;642376;1302;139589;-82
2022/10/26 07:53:45;;;;;;;26.40;14.80;;;;;;;13.10;100.00;100711.59;643098;1302;140778;-82
2022/10/26 08:08:50;;;;;;;30.40;16.40;;;;;;;13.28;100.00;100721.15;641487;1304;139405;-82
2022/10/26 08:23:54;;;;;;;37.20;16.00;;;;;;;13.46;100.00;100734.31;641635;1296;139909;-82
2022/10/26 08:38:58;;;;;;;29.20;16.00;;;;;;;13.46;100.00;100745.19;641595;1309;140005;-82
2022/10/26 08:54:21;;;;;;;35.80;18.00;;;;;;;13.49;100.00;100750.73;641983;1301;139649;-82
2022/10/26 09:09:57;;;;;;;35.90;18.40;;;;;;;13.74;100.00;100754.26;641766;1295;140537;-81
2022/10/26 09:25:15;;;;;;;34.00;19.50;;;;;;;14.20;100.00;100768.85;644433;1296;139798;-82
2022/10/26 09:40:35;;;;;;;27.30;14.60;;;;;;;14.37;100.00;100783.08;641789;1295;139821;-81
2022/10/26 09:55:42;;;;;;;22.40;13.10;;;;;;;14.53;100.00;100790.36;641054;1294;139438;-81
2022/10/26 10:10:54;;;;;;;25.40;14.60;;;;;;;14.34;100.00;100797.45;641827;1299;140035;-82
2022/10/26 10:26:02;;;;;;;29.20;14.90;;;;;;;14.17;100.00;100801.00;641203;1302;139348;-82
2022/10/26 10:41:15;;;;;;;25.30;12.70;;;;;;;14.14;100.00;100805.02;640862;1299;141193;-82
2022/10/26 10:56:41;;;;;;;32.90;15.30;;;;;;;14.30;100.00;100814.52;642798;1299;139393;-81
2022/10/26 11:11:57;;;;;;;69.40;37.90;;;;;;;14.35;100.00;100822.19;643219;1295;140215;-82
2022/10/26 11:27:11;;;;;;;150.80;50.60;;;;;;;14.36;100.00;100824.41;641696;1302;140565;-82
2022/10/26 11:42:33;;;;;;;153.50;59.90;;;;;;;14.53;100.00;100832.04;641428;1288;139591;-82
2022/10/26 11:57:37;;;;;;;215.20;76.20;;;;;;;14.62;100.00;100834.95;641370;1298;140015;-82
2022/10/26 12:12:48;;;;;;;36.20;17.50;;;;;;;14.63;100.00;100846.11;641418;1309;139581;-82
2022/10/26 12:27:55;;;;;;;38.30;18.10;;;;;;;14.54;100.00;100845.90;641540;1309;140195;-82
2022/10/26 12:43:17;;;;;;;38.00;18.50;;;;;;;14.58;100.00;100849.16;641534;1304;140109;-81
2022/10/26 12:58:40;;;;;;;38.90;18.40;;;;;;;14.81;100.00;100848.80;640659;1301;139918;-81
2022/10/26 13:13:51;;;;;;;34.40;18.30;;;;;;;14.52;100.00;100858.98;643048;1300;139505;-81
2022/10/26 13:29:01;;;;;;;30.30;16.70;;;;;;;14.54;100.00;100856.38;640943;1294;139956;-80
2022/10/26 13:44:07;;;;;;;29.40;13.50;;;;;;;14.72;100.00;100854.25;640863;1298;140384;-80
2022/10/26 13:59:12;;;;;;;37.00;19.60;;;;;;;14.72;100.00;100860.75;640980;1303;140796;-80
2022/10/26 14:14:21;;;;;;;33.40;18.30;;;;;;;14.64;100.00;100873.26;640935;1294;140808;-80
2022/10/26 14:29:26;;;;;;;37.30;19.20;;;;;;;14.48;100.00;100881.14;641308;1291;141255;-80
2022/10/26 14:44:29;;;;;;;69.40;41.30;;;;;;;14.40;100.00;100896.13;642046;1305;139840;-81
2022/10/26 14:59:33;;;;;;;87.00;47.60;;;;;;;14.31;100.00;100897.52;640372;1298;140027;-80
2022/10/26 15:14:41;;;;;;;48.70;22.90;;;;;;;14.23;100.00;100899.70;639839;1302;140819;-80
2022/10/26 15:29:48;;;;;;;167.30;87.60;;;;;;;14.24;100.00;100909.61;641383;1305;140550;-80
2022/10/26 15:44:52;;;;;;;112.70;59.30;;;;;;;14.23;100.00;100911.77;641638;1293;140252;-80
2022/10/26 15:59:55;;;;;;;165.90;83.00;;;;;;;14.14;100.00;100925.60;642430;1294;140161;-80
2022/10/26 16:15:01;;;;;;;45.50;24.60;;;;;;;14.02;100.00;100920.80;641872;1289;140795;-80
2022/10/26 16:30:09;;;;;;;64.00;35.30;;;;;;;13.62;100.00;100916.98;640751;1295;140388;-79
2022/10/26 16:45:14;;;;;;;41.30;23.70;;;;;;;13.38;100.00;100928.81;640584;1302;141205;-80
2022/10/26 17:00:18;;;;;;;34.40;20.90;;;;;;;13.07;100.00;100935.62;640896;1291;141729;-80
2022/10/26 17:15:22;;;;;;;42.70;27.40;;;;;;;12.95;100.00;100954.91;641567;1297;140714;-80
2022/10/26 17:30:31;;;;;;;62.90;31.40;;;;;;;12.79;100.00;100970.02;640938;1298;140080;-81
2022/10/26 17:45:36;;;;;;;69.90;36.70;;;;;;;12.38;100.00;100985.02;641265;1291;139961;-82
2022/10/26 18:00:40;;;;;;;111.90;52.10;;;;;;;12.03;100.00;100997.79;639510;1304;1323843;-80
2022/10/26 18:15:48;;;;;;;108.40;52.10;;;;;;;11.77;100.00;100995.66;643350;1301;141197;-80
2022/10/26 18:30:51;;;;;;;60.20;32.90;;;;;;;11.61;100.00;101000.64;642254;1297;139866;-80
2022/10/26 18:46:10;;;;;;;56.70;27.60;;;;;;;11.29;100.00;101005.42;641272;1293;140135;-80
2022/10/26 19:01:21;;;;;;;87.10;40.30;;;;;;;11.25;100.00;101015.70;641637;1288;139126;-80
2022/10/26 19:16:27;;;;;;;209.70;92.70;;;;;;;10.83;100.00;101037.52;640184;1309;139958;-80
2022/10/26 19:31:52;;;;;;;131.20;63.90;;;;;;;10.69;100.00;101051.92;644715;1295;140521;-80
2022/10/26 19:46:55;;;;;;;182.60;81.30;;;;;;;10.56;100.00;101076.55;639508;1294;141374;-80
2022/10/26 20:01:59;;;;;;;172.60;74.30;;;;;;;10.34;100.00;101098.77;640184;1303;139713;-80
2022/10/26 20:17:03;;;;;;;89.80;40.10;;;;;;;10.20;100.00;101119.50;639321;1310;140078;-80
2022/10/26 20:32:06;;;;;;;91.20;41.90;;;;;;;10.24;100.00;101124.85;641644;1292;140145;-79
2022/10/26 20:47:10;;;;;;;266.60;115.70;;;;;;;10.28;100.00;101118.58;641567;1295;140051;-79
2022/10/26 21:02:14;;;;;;;234.00;104.70;;;;;;;10.15;100.00;101122.86;641053;1304;139813;-79
2022/10/26 21:17:18;;;;;;;201.10;95.30;;;;;;;10.25;100.00;101128.06;639973;1295;140169;-79
2022/10/26 21:32:21;;;;;;;112.90;55.10;;;;;;;10.25;100.00;101129.86;640420;1295;140567;-79
2022/10/26 21:47:24;;;;;;;110.60;52.60;;;;;;;10.28;100.00;101132.58;639993;1297;140115;-79
2022/10/26 22:02:27;;;;;;;137.30;66.10;;;;;;;10.28;100.00;101139.75;639479;1295;139878;-79
2022/10/26 22:17:31;;;;;;;144.90;69.00;;;;;;;10.27;100.00;101132.53;640048;1285;139509;-79
2022/10/26 22:32:34;;;;;;;161.80;77.10;;;;;;;10.08;100.00;101131.40;639621;1309;141852;-79
2022/10/26 22:47:37;;;;;;;197.90;93.40;;;;;;;10.08;100.00;101129.98;639745;1291;139553;-79
2022/10/26 23:02:40;;;;;;;147.70;72.80;;;;;;;10.15;100.00;101129.52;640862;1302;139614;-80
2022/10/26 23:17:43;;;;;;;133.00;63.00;;;;;;;10.13;100.00;101142.20;640392;1294;139863;-81
2022/10/26 23:32:46;;;;;;;123.60;61.80;;;;;;;10.00;100.00;101145.12;641092;1301;139432;-80
2022/10/26 23:47:49;;;;;;;115.30;59.40;;;;;;;9.87;100.00;101152.29;641791;1297;139661;-80
